Time;durP1;ratioP1;P1;durP2;ratioP2;P2;SDS_P1;SDS_P2;PMS_P1;PMS_P2;Temp;Humidity;BMP_temperature;BMP_pressure;BME280_temperature;BME280_humidity;BME280_pressure;Samples;Min_cycle;Max_cycle;Signal;HPM_P1;HPM_P2
2021/06/02 00:01:40;;;;;;;16.23;10.40;;;;;;;12.75;60.60;98996.60;262561;1093;22734;-72
2021/06/02 00:07:17;;;;;;;14.47;9.40;;;;;;;12.69;60.73;98992.42;262360;1093;22750;-70
2021/06/02 00:12:32;;;;;;;14.47;8.97;;;;;;;12.63;60.88;98989.03;262656;1098;22913;-71
2021/06/02 00:18:01;;;;;;;14.17;9.80;;;;;;;12.58;61.24;98988.33;262839;1093;27542;-72
2021/06/02 00:23:14;;;;;;;12.85;9.60;;;;;;;12.52;61.01;98976.88;262767;1093;26292;-70
2021/06/02 00:28:28;;;;;;;12.80;8.75;;;;;;;12.42;61.30;98983.23;262756;1093;26263;-71
2021/06/02 00:34:45;;;;;;;15.33;9.23;;;;;;;12.35;61.39;98988.16;262804;1093;22801;-71
2021/06/02 00:40:58;;;;;;;13.80;10.35;;;;;;;12.21;61.19;98998.86;262656;1098;23448;-70
2021/06/02 00:46:41;;;;;;;13.65;9.80;;;;;;;12.04;61.33;99002.09;262691;1093;22724;-71
2021/06/02 00:52:34;;;;;;;;;;;;;;;;;;;;;
2021/06/02 00:58:42;;;;;;;13.80;9.27;;;;;;;11.59;62.39;99009.69;262725;1093;22825;-71
2021/06/02 01:04:08;;;;;;;;;;;;;;;;;;;;;
2021/06/02 01:10:13;;;;;;;13.87;9.77;;;;;;;11.24;63.21;99001.02;262432;1093;22838;-71
2021/06/02 01:15:24;;;;;;;14.85;10.10;;;;;;;11.04;63.59;99010.89;262453;1093;25858;-71
2021/06/02 01:20:42;;;;;;;16.45;9.95;;;;;;;10.78;63.80;99007.68;262436;1093;22748;-70
2021/06/02 01:25:52;;;;;;;15.10;9.95;;;;;;;10.52;64.22;99012.47;262733;1094;22757;-70
2021/06/02 01:31:06;;;;;;;15.47;10.17;;;;;;;10.32;64.79;99016.11;262583;1093;22797;-71
2021/06/02 01:36:34;;;;;;;15.33;10.67;;;;;;;10.18;65.02;99023.98;262574;1098;24080;-72
2021/06/02 01:42:20;;;;;;;13.80;10.05;;;;;;;10.02;65.38;99013.39;262414;1097;22744;-71
2021/06/02 01:47:24;;;;;;;12.85;9.60;;;;;;;9.92;65.68;99024.17;262627;1098;22740;-71
2021/06/02 01:52:55;;;;;;;15.20;10.57;;;;;;;9.85;65.84;99026.33;262711;1098;22806;-71
2021/06/02 01:58:41;;;;;;;12.80;10.08;;;;;;;9.78;66.29;99018.63;262565;1098;22760;-72
2021/06/02 02:04:37;;;;;;;15.83;10.30;;;;;;;9.69;66.86;99031.77;262633;1093;24321;-72
2021/06/02 02:23:15;;;;;;;13.53;10.07;;;;;;;9.40;67.29;99023.62;261815;1093;22882;-71
2021/06/02 02:29:13;;;;;;;21.90;10.30;;;;;;;9.38;66.84;99020.44;262493;1093;22744;-71
2021/06/02 02:34:48;;;;;;;14.10;10.13;;;;;;;9.30;67.19;99024.46;262813;1098;22758;-71
2021/06/02 02:40:08;;;;;;;15.70;9.85;;;;;;;9.23;67.52;99021.28;262818;1098;23071;-71
2021/06/02 02:45:28;;;;;;;14.77;9.70;;;;;;;9.16;67.20;99032.26;262647;1098;22781;-72
2021/06/02 02:50:49;;;;;;;15.30;10.37;;;;;;;9.11;67.82;99034.15;262405;1093;24455;-71
2021/06/02 02:56:09;;;;;;;15.47;10.83;;;;;;;9.06;68.03;99026.95;262748;1093;26232;-71
2021/06/02 03:01:41;;;;;;;14.70;10.17;;;;;;;9.00;68.18;99038.75;262608;1093;22790;-72
2021/06/02 03:06:53;;;;;;;14.93;9.93;;;;;;;8.95;68.08;99039.53;262307;1098;22771;-70
2021/06/02 03:12:51;;;;;;;16.33;10.40;;;;;;;8.93;68.18;99039.02;262403;1093;22745;-71
2021/06/02 03:18:57;;;;;;;12.90;9.23;;;;;;;9.05;68.64;99039.53;262456;1098;24173;-71
2021/06/02 03:25:21;;;;;;;14.13;8.57;;;;;;;9.53;68.57;99048.98;262355;1098;22803;-70
2021/06/02 03:30:50;;;;;;;12.10;8.67;;;;;;;10.10;68.19;99055.63;262541;1098;24020;-70
2021/06/02 03:36:15;;;;;;;13.43;8.90;;;;;;;10.58;67.32;99059.58;262243;1098;22748;-71
2021/06/02 03:42:02;;;;;;;18.30;8.80;;;;;;;10.94;66.41;99062.73;262450;1093;25350;-71
2021/06/02 03:47:40;;;;;;;12.47;8.43;;;;;;;11.29;65.76;99066.11;262615;1093;22939;-72
2021/06/02 03:53:15;;;;;;;12.80;8.73;;;;;;;11.70;65.05;99074.77;262347;1098;22758;-71
2021/06/02 03:58:50;;;;;;;12.50;8.40;;;;;;;12.09;64.48;99068.36;262297;1098;22939;-71
2021/06/02 04:04:03;;;;;;;12.35;9.10;;;;;;;12.25;64.04;99083.13;262730;1098;22791;-71
2021/06/02 04:09:22;;;;;;;13.70;8.80;;;;;;;12.29;64.16;99083.36;262714;1093;22740;-71
2021/06/02 04:14:36;;;;;;;15.23;9.50;;;;;;;12.11;63.86;99096.49;262361;1098;22902;-71
2021/06/02 04:19:55;;;;;;;13.10;8.93;;;;;;;11.87;64.27;99093.06;262475;1098;22775;-71
2021/06/02 04:25:32;;;;;;;11.95;8.40;;;;;;;11.71;64.67;99097.81;262615;1098;24180;-72
2021/06/02 04:31:06;;;;;;;12.80;9.20;;;;;;;11.60;65.01;99103.31;261667;1101;22827;-71
2021/06/02 04:36:24;;;;;;;12.87;9.20;;;;;;;11.60;65.34;99102.52;262046;1101;22783;-72
2021/06/02 04:41:29;;;;;;;10.87;8.17;;;;;;;11.62;65.34;99119.12;261762;1101;22771;-71
2021/06/02 04:46:34;;;;;;;15.00;9.35;;;;;;;11.67;65.78;99121.75;261768;1101;22778;-71
2021/06/02 04:51:59;;;;;;;12.00;8.80;;;;;;;11.71;65.99;99117.41;261833;1093;27623;-70
2021/06/02 04:57:47;;;;;;;11.47;7.60;;;;;;;11.77;65.60;99129.67;261858;1093;25836;-70
2021/06/02 05:03:04;;;;;;;10.67;7.33;;;;;;;11.94;65.44;99128.42;261361;1093;22771;-70
2021/06/02 05:08:49;;;;;;;11.50;8.10;;;;;;;12.07;65.80;99130.38;261932;1101;22916;-71
2021/06/02 05:14:25;;;;;;;11.67;7.57;;;;;;;12.24;64.80;99142.52;261817;1101;24016;-71
2021/06/02 05:20:20;;;;;;;10.63;5.60;;;;;;;12.38;64.74;99143.41;261746;1100;22776;-70
2021/06/02 05:26:29;;;;;;;10.33;7.10;;;;;;;12.60;64.62;99153.54;262572;1098;22758;-71
2021/06/02 05:32:44;;;;;;;8.57;6.83;;;;;;;12.91;63.97;99160.33;262603;1100;22815;-70
2021/06/02 05:38:45;;;;;;;10.73;7.00;;;;;;;13.08;63.79;99163.28;263953;1098;22961;-71
2021/06/02 06:06:46;;;;;;;7.75;5.50;;;;;;;14.45;61.12;99175.44;262665;1099;22894;-71
2021/06/02 06:19:40;;;;;;;;;;;;;;;;;;;;;
2021/06/02 06:25:23;;;;;;;6.80;5.40;;;;;;;15.25;59.18;99189.22;262746;1101;21549;-69
2021/06/02 06:31:04;;;;;;;5.65;4.85;;;;;;;15.45;58.49;99181.69;261185;1093;24282;-70
2021/06/02 06:36:28;;;;;;;7.95;4.30;;;;;;;15.67;58.01;99173.52;263049;1093;25752;-69
2021/06/02 06:41:57;;;;;;;5.10;4.03;;;;;;;15.96;57.67;99182.21;263191;1093;25819;-70
2021/06/02 06:47:06;;;;;;;4.33;3.70;;;;;;;16.17;56.65;99180.53;263232;1093;23318;-71
2021/06/02 06:52:18;;;;;;;5.80;4.15;;;;;;;16.39;55.77;99178.79;262714;1098;22819;-71
2021/06/02 06:57:38;;;;;;;4.55;3.35;;;;;;;16.59;55.01;99185.47;262962;1098;22847;-71
2021/06/02 07:02:47;;;;;;;5.05;2.90;;;;;;;16.81;53.77;99187.22;262675;1098;22725;-71
2021/06/02 07:08:36;;;;;;;3.35;2.85;;;;;;;17.10;53.32;99183.08;262823;1093;27045;-71
2021/06/02 07:13:58;;;;;;;2.65;2.45;;;;;;;17.39;52.67;99184.26;262931;1098;22855;-71
2021/06/02 07:19:08;;;;;;;4.40;2.85;;;;;;;17.63;51.16;99189.13;262579;1098;22747;-71
2021/06/02 07:24:18;;;;;;;4.45;2.65;;;;;;;17.78;50.53;99188.58;262601;1094;22821;-72
2021/06/02 07:29:32;;;;;;;4.85;2.90;;;;;;;17.93;49.34;99192.66;262723;1098;22777;-72
2021/06/02 07:34:36;;;;;;;3.90;2.40;;;;;;;18.11;48.55;99184.45;262534;1098;22954;-71
2021/06/02 07:39:53;;;;;;;7.50;2.60;;;;;;;18.25;47.72;99195.83;262688;1098;23354;-71
2021/06/02 07:45:13;;;;;;;3.25;2.30;;;;;;;18.40;46.66;99193.67;262610;1093;25921;-72
2021/06/02 07:50:33;;;;;;;2.20;2.00;;;;;;;18.54;45.71;99199.63;262462;1098;24087;-71
2021/06/02 07:55:47;;;;;;;3.20;2.05;;;;;;;18.73;46.00;99195.64;262605;1093;26200;-69
2021/06/02 08:01:28;;;;;;;3.13;2.43;;;;;;;18.88;44.27;99202.41;262968;1098;22672;-72
2021/06/02 08:07:05;;;;;;;3.25;2.30;;;;;;;19.05;43.57;99199.52;262881;1098;23322;-70
2021/06/02 08:13:01;;;;;;;;;;;;;;;;;;;;;
2021/06/02 08:18:22;;;;;;;2.40;2.20;;;;;;;19.30;41.04;99202.31;263068;1093;22801;-70
2021/06/02 08:23:35;;;;;;;3.40;2.15;;;;;;;19.40;40.78;99196.44;263444;1098;22844;-69
2021/06/02 08:28:56;;;;;;;3.60;2.30;;;;;;;19.36;40.98;99200.17;263226;1098;23618;-71
2021/06/02 08:34:58;;;;;;;2.50;2.00;;;;;;;19.57;39.91;99200.09;263213;1093;22794;-71
2021/06/02 08:40:45;;;;;;;3.78;2.00;;;;;;;19.69;40.09;99191.17;262554;1094;26053;-72
2021/06/02 08:46:05;;;;;;;3.73;2.20;;;;;;;20.03;39.98;99202.74;262727;1098;22794;-72
2021/06/02 08:51:15;;;;;;;3.70;1.90;;;;;;;20.07;38.64;99207.14;262488;1093;26194;-71
2021/06/02 08:56:33;;;;;;;2.70;2.00;;;;;;;20.07;37.66;99218.02;262369;1098;25232;-72
2021/06/02 09:07:58;;;;;;;2.23;2.03;;;;;;;20.46;38.43;99206.76;262467;1093;25324;-72
2021/06/02 09:13:18;;;;;;;3.53;2.30;;;;;;;20.39;37.19;99222.88;262673;1093;22881;-72
2021/06/02 09:18:44;;;;;;;2.18;2.03;;;;;;;20.44;38.10;99214.45;262541;1098;24190;-72
2021/06/02 09:24:23;;;;;;;4.90;1.63;;;;;;;20.68;37.61;99217.15;263166;1093;22907;-72
2021/06/02 09:30:15;;;;;;;2.60;1.80;;;;;;;20.87;37.53;99214.94;262775;1093;25931;-72
2021/06/02 09:35:54;;;;;;;;;;;;;;;;;;;;;
2021/06/02 09:40:58;;;;;;;2.70;1.97;;;;;;;20.99;36.75;99218.39;264364;1093;25870;-70
2021/06/02 09:46:03;;;;;;;4.45;1.70;;;;;;;21.06;36.71;99220.52;263335;1098;22823;-70
2021/06/02 09:51:40;;;;;;;2.80;2.17;;;;;;;21.21;36.27;99221.71;262823;1098;22803;-72
2021/06/02 09:57:01;;;;;;;2.90;2.00;;;;;;;21.39;36.02;99219.42;262919;1093;22821;-72
2021/06/02 10:03:05;;;;;;;3.58;1.73;;;;;;;21.31;34.75;99215.73;264271;1098;22763;-72
2021/06/02 10:09:52;;;;;;;2.45;1.70;;;;;;;21.51;35.53;99229.47;262936;1098;22781;-71
2021/06/02 10:16:30;;;;;;;;;;;;;;;;;;;;;
2021/06/02 10:28:36;;;;;;;3.98;2.25;;;;;;;21.92;34.56;99211.02;260995;1098;22751;-71
2021/06/02 10:42:30;;;;;;;;;;;;;;;;;;;;;
2021/06/02 10:49:16;;;;;;;2.13;1.90;;;;;;;22.06;34.48;99213.28;263050;1098;22919;-71
2021/06/02 10:56:01;;;;;;;3.35;1.93;;;;;;;21.92;33.76;99208.28;262992;1098;23731;-71
2021/06/02 11:01:54;;;;;;;2.13;1.75;;;;;;;21.94;33.56;99210.69;262512;1098;22831;-70
2021/06/02 11:07:36;;;;;;;2.13;1.90;;;;;;;21.96;33.44;99206.44;262879;1098;22909;-71
2021/06/02 11:13:06;;;;;;;2.88;1.93;;;;;;;21.87;33.42;99198.45;262919;1093;22819;-71
2021/06/02 11:18:18;;;;;;;3.43;1.97;;;;;;;21.90;33.32;99204.36;262958;1098;23645;-71
2021/06/02 11:23:38;;;;;;;3.08;2.05;;;;;;;21.94;33.29;99199.78;262788;1098;22817;-71
2021/06/02 11:28:54;;;;;;;2.65;2.45;;;;;;;22.09;33.32;99200.88;262835;1094;27066;-70
2021/06/02 11:34:39;;;;;;;;;;;;;;;;;;;;;
2021/06/02 11:40:30;;;;;;;3.30;2.65;;;;;;;22.12;34.23;99213.80;263247;1093;22774;-71
2021/06/02 11:46:02;;;;;;;;;;;;;;;;;;;;;
2021/06/02 11:51:34;;;;;;;;;;;;;;;22.13;33.53;99207.20;262949;1098;22826;-70
2021/06/02 11:56:41;;;;;;;4.53;2.75;;;;;;;22.26;33.33;99195.03;262750;1098;21466;-71
2021/06/02 12:01:53;;;;;;;2.75;2.00;;;;;;;22.36;32.57;99210.09;262987;1093;22751;-70
2021/06/02 12:07:28;;;;;;;3.65;3.35;;;;;;;22.28;32.74;99203.64;262934;1098;23069;-70
2021/06/02 12:13:01;;;;;;;2.90;2.20;;;;;;;22.39;33.46;99201.19;262565;1093;26356;-70
2021/06/02 12:18:40;;;;;;;4.18;3.30;;;;;;;22.41;32.93;99207.06;262848;1098;22922;-70
2021/06/02 12:24:20;;;;;;;2.33;2.10;;;;;;;22.53;33.39;99204.20;262359;1093;22888;-71
2021/06/02 12:29:40;;;;;;;2.60;2.40;;;;;;;22.70;32.45;99200.26;262988;1093;25829;-71
2021/06/02 12:35:15;;;;;;;;;;;;;;;22.69;31.89;99195.97;262838;1098;22771;-71
2021/06/02 12:40:56;;;;;;;3.90;2.00;;;;;;;22.68;32.27;99194.38;262825;1098;21471;-70
2021/06/02 12:46:15;;;;;;;;;;;;;;;22.85;33.05;99204.07;262956;1093;26289;-71
2021/06/02 12:51:46;;;;;;;2.35;2.08;;;;;;;22.79;31.93;99208.25;263120;1098;21451;-71
2021/06/02 12:57:02;;;;;;;2.25;2.00;;;;;;;22.61;33.00;99209.81;262948;1093;25966;-71
2021/06/02 13:02:13;;;;;;;2.07;1.83;;;;;;;22.41;32.55;99207.06;263089;1093;22749;-71
2021/06/02 13:07:37;;;;;;;2.80;2.47;;;;;;;22.36;33.31;99205.41;263134;1098;24022;-71
2021/06/02 13:13:04;;;;;;;3.63;2.50;;;;;;;22.55;32.88;99193.73;262940;1098;22787;-72
2021/06/02 13:18:32;;;;;;;2.20;2.00;;;;;;;22.60;33.07;99192.65;262625;1093;26056;-72
2021/06/02 13:23:42;;;;;;;3.23;2.30;;;;;;;22.56;32.59;99198.02;262682;1098;22748;-72
2021/06/02 13:29:15;;;;;;;2.25;2.05;;;;;;;22.68;32.23;99201.79;262296;1096;22781;-72
2021/06/02 13:34:43;;;;;;;2.35;2.08;;;;;;;22.86;32.41;99199.39;262607;1093;25893;-72
2021/06/02 13:40:17;;;;;;;2.98;1.80;;;;;;;22.93;32.13;99201.47;263111;1098;23389;-72
2021/06/02 13:45:54;;;;;;;3.00;2.05;;;;;;;22.97;31.98;99197.67;263011;1094;23396;-72
2021/06/02 13:51:28;;;;;;;2.95;2.00;;;;;;;22.96;32.06;99204.28;263046;1098;25359;-71
2021/06/02 13:57:06;;;;;;;3.28;1.93;;;;;;;22.89;31.22;99210.39;262825;1098;22791;-71
2021/06/02 14:02:21;;;;;;;4.95;3.63;;;;;;;22.92;32.15;99214.35;263745;1094;26165;-73
2021/06/02 14:07:29;;;;;;;2.40;1.90;;;;;;;23.09;31.89;99198.66;263131;1093;26649;-71
2021/06/02 14:13:04;;;;;;;2.58;2.10;;;;;;;23.05;31.05;99207.56;262799;1098;22764;-72
2021/06/02 14:18:37;;;;;;;2.77;2.57;;;;;;;23.04;31.25;99210.66;263120;1098;22740;-72
2021/06/02 14:24:27;;;;;;;1.78;1.68;;;;;;;23.11;31.16;99210.01;262779;1093;26299;-71
2021/06/02 14:29:39;;;;;;;2.48;1.85;;;;;;;23.14;31.40;99198.38;262948;1098;22763;-72
2021/06/02 14:34:43;;;;;;;3.55;2.33;;;;;;;23.15;31.51;99200.75;263251;1098;22768;-72
2021/06/02 14:39:56;;;;;;;2.63;2.10;;;;;;;23.21;31.34;99198.50;262735;1098;22756;-72
2021/06/02 14:45:23;;;;;;;2.55;2.35;;;;;;;23.24;31.21;99203.27;262656;1093;22886;-73
2021/06/02 14:50:31;;;;;;;3.18;2.40;;;;;;;23.22;31.42;99200.09;262578;1098;22936;-73
2021/06/02 14:55:50;;;;;;;2.40;1.83;;;;;;;23.13;31.34;99202.28;262550;1093;25980;-72
2021/06/02 15:00:57;;;;;;;2.45;1.90;;;;;;;23.01;31.34;99206.70;262420;1098;22778;-72
2021/06/02 15:06:13;;;;;;;4.35;2.38;;;;;;;22.98;31.58;99201.97;262404;1093;22748;-72
2021/06/02 15:11:26;;;;;;;6.60;2.68;;;;;;;23.04;32.02;99200.54;262683;1093;25993;-73
2021/06/02 15:16:33;;;;;;;4.70;2.78;;;;;;;23.07;32.07;99207.23;262519;1098;22680;-72
2021/06/02 15:21:39;;;;;;;2.63;1.93;;;;;;;22.85;31.79;99204.07;262040;1100;22767;-73
2021/06/02 15:26:49;;;;;;;4.27;3.97;;;;;;;22.82;31.69;99209.45;263222;1098;22784;-72
2021/06/02 15:31:53;;;;;;;2.10;2.00;;;;;;;22.80;32.28;99207.08;263048;1098;22907;-73
2021/06/02 15:37:18;;;;;;;1.75;1.65;;;;;;;22.62;32.22;99209.45;262738;1098;22817;-72
2021/06/02 15:42:28;;;;;;;2.83;2.38;;;;;;;22.57;32.84;99209.75;263568;1093;26225;-72
2021/06/02 15:48:02;;;;;;;;;;;;;;;22.56;33.20;99210.89;262781;1098;22820;-72
2021/06/02 15:53:10;;;;;;;2.37;2.03;;;;;;;22.56;32.96;99205.44;262726;1098;21750;-72
2021/06/02 15:58:25;;;;;;;3.60;2.50;;;;;;;22.54;33.39;99199.55;262452;1098;22987;-73
2021/06/02 16:03:29;;;;;;;3.48;2.40;;;;;;;22.51;33.97;99206.52;262467;1093;26190;-72
2021/06/02 16:08:42;;;;;;;2.88;2.00;;;;;;;22.47;33.69;99211.11;262423;1093;22760;-72
2021/06/02 16:14:00;;;;;;;3.98;2.08;;;;;;;22.33;33.34;99208.86;262872;1098;22812;-72
2021/06/02 16:19:05;;;;;;;2.95;2.13;;;;;;;22.03;33.51;99203.89;262124;1098;22743;-73
2021/06/02 16:25:16;;;;;;;2.73;2.47;;;;;;;21.77;33.70;99196.27;262519;1093;22744;-72
2021/06/02 16:30:25;;;;;;;3.28;2.28;;;;;;;21.63;33.66;99204.89;262655;1098;22765;-72
2021/06/02 16:35:41;;;;;;;4.15;2.78;;;;;;;21.59;34.96;99212.19;262841;1093;22920;-72
2021/06/02 16:41:03;;;;;;;3.03;2.08;;;;;;;21.55;35.07;99216.76;262849;1098;22734;-73
2021/06/02 16:46:25;;;;;;;2.50;2.30;;;;;;;21.43;35.17;99219.53;262775;1098;22751;-72
2021/06/02 16:51:34;;;;;;;3.53;2.08;;;;;;;21.26;34.93;99221.44;262949;1098;22764;-72
2021/06/02 16:56:43;;;;;;;2.55;2.03;;;;;;;21.06;35.36;99219.74;263045;1098;22777;-74
2021/06/02 17:02:05;;;;;;;1.90;1.70;;;;;;;20.93;35.78;99216.26;262704;1098;22747;-73
2021/06/02 17:07:20;;;;;;;2.78;2.33;;;;;;;21.16;36.40;99219.23;262428;1098;22786;-71
2021/06/02 17:12:55;;;;;;;1.83;1.70;;;;;;;22.51;36.34;99233.81;262765;1098;22770;-73
2021/06/02 17:18:05;;;;;;;3.20;2.20;;;;;;;24.18;35.58;99227.45;262403;1098;23715;-73
2021/06/02 17:23:17;;;;;;;3.90;2.55;;;;;;;25.66;34.54;99234.69;262930;1098;23483;-73
2021/06/02 17:29:02;;;;;;;3.63;3.23;;;;;;;26.36;32.80;99232.06;262791;1093;22760;-72
2021/06/02 17:34:41;;;;;;;2.77;2.50;;;;;;;26.58;31.55;99238.45;262755;1098;22770;-72
2021/06/02 17:39:53;;;;;;;3.08;2.60;;;;;;;26.16;31.08;99245.26;262638;1093;22738;-73
2021/06/02 17:45:22;;;;;;;;;;;;;;;;;;;;;
2021/06/02 17:50:38;;;;;;;3.43;2.60;;;;;;;23.54;31.31;99238.14;262547;1093;24430;-70
2021/06/02 17:55:59;;;;;;;5.20;2.53;;;;;;;22.04;32.89;99245.59;262584;1093;22907;-73
2021/06/02 18:01:53;;;;;;;2.80;2.60;;;;;;;20.68;34.52;99257.20;262893;1098;22913;-72
2021/06/02 18:07:30;;;;;;;2.65;2.45;;;;;;;19.74;35.82;99258.88;262800;1098;22873;-73
2021/06/02 18:12:43;;;;;;;3.65;2.75;;;;;;;19.03;37.08;99260.70;262497;1093;26331;-72
2021/06/02 18:18:11;;;;;;;4.50;3.05;;;;;;;18.55;37.89;99269.04;262318;1098;22884;-71
2021/06/02 18:23:39;;;;;;;3.70;2.33;;;;;;;18.09;38.88;99276.95;262252;1098;22741;-73
2021/06/02 18:29:10;;;;;;;4.07;2.77;;;;;;;17.69;39.95;99274.52;262749;1098;22804;-73
2021/06/02 18:34:25;;;;;;;5.40;2.13;;;;;;;17.28;40.88;99284.80;262423;1093;22820;-72
2021/06/02 18:39:56;;;;;;;3.07;2.33;;;;;;;16.95;41.43;99283.70;262509;1093;22728;-74
2021/06/02 18:45:12;;;;;;;3.85;2.40;;;;;;;16.65;41.94;99294.30;262478;1098;22758;-74
2021/06/02 18:50:54;;;;;;;2.50;2.30;;;;;;;16.37;42.42;99289.95;262590;1098;22747;-73
2021/06/02 18:56:37;;;;;;;;;;;;;;;;;;;;;
2021/06/02 19:09:16;;;;;;;;;;;;;;;;;;;;;
2021/06/02 19:14:24;;;;;;;4.60;3.10;;;;;;;15.33;44.48;99331.53;262833;1098;22788;-73
2021/06/02 19:19:41;;;;;;;4.75;2.60;;;;;;;15.08;45.03;99332.88;262507;1093;24280;-73
2021/06/02 19:25:20;;;;;;;3.30;2.65;;;;;;;14.83;45.58;99340.45;262412;1093;24597;-73
2021/06/02 19:30:41;;;;;;;4.60;3.20;;;;;;;14.58;46.46;99354.42;262804;1098;22737;-73
2021/06/02 19:35:55;;;;;;;4.53;3.05;;;;;;;14.33;47.01;99357.33;262435;1093;26190;-73
2021/06/02 19:41:41;;;;;;;8.43;3.77;;;;;;;14.13;47.39;99355.82;262802;1098;22827;-72
2021/06/02 19:47:04;;;;;;;5.08;3.63;;;;;;;13.93;47.76;99358.87;262739;1098;23018;-72
2021/06/02 19:52:10;;;;;;;6.97;4.27;;;;;;;13.76;48.02;99362.91;262369;1093;22768;-73
2021/06/02 19:57:17;;;;;;;6.45;3.88;;;;;;;13.60;48.39;99369.63;262814;1098;22741;-73
2021/06/02 20:02:26;;;;;;;6.70;4.30;;;;;;;13.48;48.37;99372.79;262410;1093;25720;-73
2021/06/02 20:07:39;;;;;;;6.60;4.58;;;;;;;13.37;48.82;99382.11;262799;1093;22929;-75
2021/06/02 20:12:53;;;;;;;6.63;4.30;;;;;;;13.27;48.90;99374.95;262598;1098;22760;-73
2021/06/02 20:17:57;;;;;;;5.83;4.60;;;;;;;13.16;49.15;99377.80;262245;1098;22861;-73
2021/06/02 20:23:06;;;;;;;6.40;4.35;;;;;;;13.08;49.58;99381.14;262159;1098;22827;-74
2021/06/02 20:28:33;;;;;;;6.55;5.35;;;;;;;13.02;49.85;99379.59;262374;1098;22842;-74
2021/06/02 20:33:43;;;;;;;7.68;6.25;;;;;;;12.95;49.74;99382.63;262492;1093;25720;-72
2021/06/02 20:39:15;;;;;;;9.40;6.55;;;;;;;12.89;50.02;99383.01;262749;1098;23453;-73
2021/06/02 20:44:28;;;;;;;9.57;6.70;;;;;;;12.82;49.86;99381.45;262839;1093;22753;-73
2021/06/02 20:49:32;;;;;;;6.70;5.40;;;;;;;12.77;50.04;99373.47;262345;1093;22921;-73
2021/06/02 20:54:40;;;;;;;9.33;5.83;;;;;;;12.71;50.16;99379.98;262710;1093;22778;-74
2021/06/02 20:59:48;;;;;;;7.73;5.63;;;;;;;12.65;50.46;99392.69;262487;1093;23243;-73
2021/06/02 21:04:52;;;;;;;9.35;6.00;;;;;;;12.57;50.55;99387.14;262792;1093;24317;-73
2021/06/02 21:09:59;;;;;;;9.80;6.50;;;;;;;12.49;51.05;99386.70;262691;1093;22771;-72
2021/06/02 21:15:06;;;;;;;8.27;7.00;;;;;;;12.41;51.41;99394.56;262897;1098;22906;-73
2021/06/02 21:20:32;;;;;;;9.35;7.65;;;;;;;12.33;51.74;99396.00;262088;1093;22738;-73
2021/06/02 21:25:37;;;;;;;11.23;6.80;;;;;;;12.26;51.79;99401.70;261776;1101;22763;-74
2021/06/02 21:30:53;;;;;;;8.80;6.75;;;;;;;12.19;51.84;99403.13;262481;1098;22802;-72
2021/06/02 21:36:19;;;;;;;9.03;6.40;;;;;;;12.07;52.37;99404.28;262731;1093;22781;-74
2021/06/02 21:41:25;;;;;;;12.20;8.93;;;;;;;11.97;52.31;99402.48;262477;1093;22778;-73
2021/06/02 21:46:45;;;;;;;14.40;9.90;;;;;;;11.89;52.46;99404.95;262882;1098;22747;-72
2021/06/02 21:51:59;;;;;;;11.95;9.15;;;;;;;11.80;53.33;99408.24;262555;1098;22817;-72
2021/06/02 21:57:08;;;;;;;10.65;7.65;;;;;;;11.78;53.37;99409.60;262517;1098;22893;-72
2021/06/02 22:02:27;;;;;;;9.47;7.03;;;;;;;11.76;53.55;99409.09;262802;1093;22778;-73
2021/06/02 22:07:43;;;;;;;8.93;6.80;;;;;;;11.73;54.01;99404.30;263025;1098;25212;-73
2021/06/02 22:13:08;;;;;;;10.00;6.83;;;;;;;11.67;54.08;99408.90;262993;1093;22738;-72
2021/06/02 22:18:19;;;;;;;9.10;7.10;;;;;;;11.61;54.11;99410.82;262644;1094;22713;-72
2021/06/02 22:23:30;;;;;;;10.47;7.07;;;;;;;11.57;54.51;99419.69;262245;1093;26235;-73
2021/06/02 22:29:00;;;;;;;10.90;6.65;;;;;;;11.53;54.80;99418.64;262565;1098;22765;-73
2021/06/02 22:34:23;;;;;;;10.08;6.95;;;;;;;11.49;55.05;99421.09;262926;1093;22860;-73
2021/06/02 22:39:42;;;;;;;18.87;9.73;;;;;;;11.45;55.47;99420.83;262738;1098;22748;-72
2021/06/02 22:45:08;;;;;;;20.90;11.90;;;;;;;11.38;55.72;99423.03;262371;1098;24576;-73
2021/06/02 22:50:34;;;;;;;16.70;10.80;;;;;;;11.25;55.73;99416.41;262429;1098;22989;-72
2021/06/02 22:56:12;;;;;;;17.00;10.87;;;;;;;11.09;55.85;99412.19;262585;1093;25944;-73
2021/06/02 23:01:25;;;;;;;15.53;9.97;;;;;;;10.94;56.34;99407.70;262344;1093;22747;-72
2021/06/02 23:06:32;;;;;;;17.75;10.13;;;;;;;10.84;56.87;99405.06;262846;1098;22919;-73
2021/06/02 23:12:02;;;;;;;17.50;11.43;;;;;;;10.78;57.46;99415.80;262507;1098;22875;-73
2021/06/02 23:17:13;;;;;;;17.60;10.93;;;;;;;10.73;57.93;99412.34;262474;1098;22916;-73
2021/06/02 23:22:25;;;;;;;17.65;12.20;;;;;;;10.63;57.99;99421.20;262737;1093;26056;-74
2021/06/02 23:27:47;;;;;;;16.60;11.67;;;;;;;10.52;58.14;99412.42;262419;1098;22884;-72
2021/06/02 23:33:14;;;;;;;23.17;10.10;;;;;;;10.41;58.60;99421.55;262747;1098;22913;-74
2021/06/02 23:38:33;;;;;;;14.47;8.63;;;;;;;10.36;58.68;99419.67;262586;1093;24045;-73
2021/06/02 23:43:48;;;;;;;16.35;9.55;;;;;;;10.37;59.11;99420.49;262656;1098;23058;-73
2021/06/02 23:49:10;;;;;;;14.00;9.00;;;;;;;10.37;59.28;99426.64;262479;1098;22907;-72
2021/06/02 23:54:47;;;;;;;14.50;9.00;;;;;;;10.35;59.27;99428.80;262757;1093;22747;-74
